createdAt,value
2023-02-09T00:01:45.127Z,102940.66
2023-02-09T00:06:47.933Z,102948.28
2023-02-09T00:12:08.163Z,102925.19
2023-02-09T00:17:13.533Z,102923.78
2023-02-09T00:22:16.400Z,102921.28
2023-02-09T00:27:19.291Z,102919.19
2023-02-09T00:32:23.646Z,102895.59
2023-02-09T00:37:26.461Z,102900.69
2023-02-09T00:42:29.310Z,102892.59
2023-02-09T00:47:33.476Z,102884.31
2023-02-09T00:52:36.811Z,102877.16
2023-02-09T00:57:39.590Z,102873.03
2023-02-09T01:02:43.994Z,102865.38
2023-02-09T01:07:46.770Z,102865.41
2023-02-09T01:12:49.926Z,102855.44
2023-02-09T01:17:54.121Z,102852.16
2023-02-09T01:22:56.879Z,102838.56
2023-02-09T01:27:59.855Z,102841.31
2023-02-09T01:33:04.169Z,102824.47
2023-02-09T01:38:06.959Z,102819.41
2023-02-09T01:43:12.807Z,102822.22
2023-02-09T01:48:19.515Z,102809.50
2023-02-09T01:53:22.518Z,102804.66
2023-02-09T01:58:27.947Z,102800.03
2023-02-09T02:03:33.218Z,102798.19
2023-02-09T02:08:40.791Z,102798.00
2023-02-09T02:13:43.622Z,102778.63
2023-02-09T02:19:12.169Z,102780.25
2023-02-09T02:24:38.944Z,102782.53
2023-02-09T02:30:26.794Z,102780.19
2023-02-09T02:35:36.794Z,102770.06
2023-02-09T02:40:54.365Z,102766.81
2023-02-09T02:46:01.926Z,102758.09
2023-02-09T02:51:09.281Z,102759.94
2023-02-09T02:56:16.447Z,102759.00
2023-02-09T03:01:23.171Z,102750.69
2023-02-09T03:06:27.352Z,102739.41
2023-02-09T03:11:35.349Z,102739.16
2023-02-09T03:16:44.177Z,102731.53
2023-02-09T03:21:56.853Z,102720.94
2023-02-09T03:27:06.297Z,102720.44
2023-02-09T03:32:10.170Z,102717.00
2023-02-09T03:37:14.504Z,102711.69
2023-02-09T03:42:17.259Z,102694.13
2023-02-09T03:47:20.303Z,102690.22
2023-02-09T03:52:24.501Z,102689.53
2023-02-09T03:57:27.284Z,102684.94
2023-02-09T04:02:30.171Z,102681.47
2023-02-09T04:07:34.443Z,102673.97
2023-02-09T04:12:37.286Z,102681.00
2023-02-09T04:17:40.137Z,102676.81
2023-02-09T04:22:44.354Z,102660.97
2023-02-09T04:27:47.193Z,102656.94
2023-02-09T04:32:49.999Z,102652.75
2023-02-09T04:37:54.307Z,102644.88
2023-02-09T04:42:57.024Z,102633.13
2023-02-09T04:48:00.529Z,102619.09
2023-02-09T04:53:04.890Z,102618.47
2023-02-09T04:58:24.921Z,102618.00
2023-02-09T05:03:27.862Z,102617.56
2023-02-09T05:08:32.741Z,102617.75
2023-02-09T05:13:35.763Z,102612.25
2023-02-09T05:18:38.591Z,102604.09
2023-02-09T05:23:42.895Z,102604.53
2023-02-09T05:28:45.651Z,102602.84
2023-02-09T05:33:48.474Z,102588.69
2023-02-09T05:38:52.562Z,102594.09
2023-02-09T05:43:55.336Z,102612.34
2023-02-09T05:48:58.579Z,102610.53
2023-02-09T05:54:02.734Z,102621.22
2023-02-09T05:59:05.657Z,102621.16
2023-02-09T06:04:09.637Z,102617.72
2023-02-09T06:09:14.223Z,102631.22
2023-02-09T06:14:17.699Z,102628.78
2023-02-09T06:19:22.173Z,102642.13
2023-02-09T06:24:27.485Z,102650.88
2023-02-09T06:29:31.300Z,102641.78
2023-02-09T06:34:34.110Z,102648.97
2023-02-09T06:39:38.282Z,102642.94
2023-02-09T06:44:40.998Z,102629.44
2023-02-09T06:49:44.274Z,102636.09
2023-02-09T06:54:48.720Z,102627.38
2023-02-09T06:59:51.655Z,102632.53
2023-02-09T07:04:54.435Z,102626.53
2023-02-09T07:09:58.551Z,102633.88
2023-02-09T07:15:01.658Z,102627.22
2023-02-09T07:20:05.436Z,102624.13
2023-02-09T07:25:09.788Z,102627.38
2023-02-09T07:30:13.818Z,102631.72
2023-02-09T07:35:16.993Z,102638.97
2023-02-09T07:40:21.182Z,102645.22
2023-02-09T07:45:23.968Z,102638.34
2023-02-09T07:50:27.139Z,102642.97
2023-02-09T07:55:31.324Z,102656.47
2023-02-09T08:00:36.334Z,102665.13
2023-02-09T08:05:44.005Z,102642.44
2023-02-09T08:10:48.587Z,102647.84
2023-02-09T08:15:54.300Z,102644.06
2023-02-09T08:20:57.140Z,102633.78
2023-02-09T08:26:05.506Z,102643.16
2023-02-09T08:31:08.246Z,102643.03
2023-02-09T08:36:12.088Z,102644.22
2023-02-09T08:41:18.142Z,102641.13
2023-02-09T08:46:21.068Z,102642.47
2023-02-09T08:51:24.065Z,102635.28
2023-02-09T08:56:28.320Z,102634.16
2023-02-09T09:01:31.215Z,102629.78
2023-02-09T09:06:34.068Z,102623.81
2023-02-09T09:11:38.198Z,102613.06
2023-02-09T09:16:41.108Z,102622.72
2023-02-09T09:21:43.953Z,102610.13
2023-02-09T09:26:48.213Z,102609.38
2023-02-09T09:31:50.989Z,102591.63
2023-02-09T09:36:53.754Z,102598.34
2023-02-09T09:42:00.657Z,102584.78
2023-02-09T09:47:09.455Z,102582.81
2023-02-09T09:52:19.439Z,102578.94
2023-02-09T09:57:26.977Z,102574.19
2023-02-09T10:02:31.813Z,102588.66
2023-02-09T10:07:35.593Z,102585.09
2023-02-09T10:12:44.328Z,102564.50
2023-02-09T10:17:47.106Z,102557.91
2023-02-09T10:22:52.917Z,102559.91
2023-02-09T10:27:57.041Z,102589.94
2023-02-09T10:33:00.671Z,102582.56
2023-02-09T10:38:04.426Z,102550.19
2023-02-09T10:43:22.184Z,102570.22
2023-02-09T10:48:26.458Z,102566.06
2023-02-09T10:53:32.481Z,102578.94
2023-02-09T10:58:38.493Z,102592.41
2023-02-09T11:03:59.662Z,102578.34
2023-02-09T11:09:07.648Z,102575.66
2023-02-09T11:14:14.450Z,102578.97
2023-02-09T11:19:33.975Z,102583.00
2023-02-09T11:24:49.403Z,102570.16
2023-02-09T11:30:05.801Z,102577.09
2023-02-09T11:35:12.341Z,102594.34
2023-02-09T11:40:26.492Z,102573.28
2023-02-09T11:45:36.110Z,102573.47
2023-02-09T11:50:50.435Z,102576.03
2023-02-09T11:55:57.865Z,102568.84
2023-02-09T12:01:15.563Z,102564.66
2023-02-09T12:06:22.900Z,102568.38
2023-02-09T12:11:48.155Z,102559.63
2023-02-09T12:17:01.121Z,102554.34
2023-02-09T12:22:44.583Z,102560.56
2023-02-09T12:28:10.672Z,102557.38
2023-02-09T12:33:19.726Z,102554.91
2023-02-09T12:38:23.037Z,102556.63
2023-02-09T12:43:31.547Z,102557.50
2023-02-09T12:48:46.464Z,102555.69
2023-02-09T12:53:49.354Z,102543.31
2023-02-09T12:58:58.259Z,102551.06
2023-02-09T13:04:05.731Z,102538.84
2023-02-09T13:09:14.517Z,102524.78
2023-02-09T13:14:19.202Z,102524.94
2023-02-09T13:19:52.762Z,102507.19
2023-02-09T13:25:00.532Z,102507.94
2023-02-09T13:30:03.315Z,102513.53
2023-02-09T13:35:17.671Z,102504.66
2023-02-09T13:40:24.446Z,102501.78
2023-02-09T13:45:28.118Z,102502.69
2023-02-09T13:50:33.440Z,102494.00
2023-02-09T13:55:40.077Z,102507.47
2023-02-09T14:00:46.688Z,102503.16
2023-02-09T14:05:55.257Z,102489.72
2023-02-09T14:11:06.709Z,102504.75
2023-02-09T14:16:10.401Z,102513.50
2023-02-09T14:21:20.013Z,102498.84
2023-02-09T14:26:25.872Z,102508.06
2023-02-09T14:31:28.675Z,102530.25
2023-02-09T14:36:35.246Z,102539.38
2023-02-09T14:41:38.028Z,102531.28
2023-02-09T14:46:52.534Z,102532.59
2023-02-09T14:52:03.798Z,102545.22
2023-02-09T14:57:06.586Z,102554.44
2023-02-09T15:02:18.075Z,102547.63
2023-02-09T15:07:30.199Z,102549.28
2023-02-09T15:12:33.049Z,102549.38
2023-02-09T15:17:35.805Z,102543.97
2023-02-09T15:22:40.373Z,102548.16
2023-02-09T15:27:51.238Z,102544.34
2023-02-09T15:32:54.657Z,102549.81
2023-02-09T15:38:00.465Z,102557.84
2023-02-09T15:43:20.592Z,102556.25
2023-02-09T15:48:23.325Z,102556.22
2023-02-09T15:53:28.177Z,102556.63
2023-02-09T15:58:36.308Z,102570.66
2023-02-09T16:03:39.547Z,102567.00
2023-02-09T16:08:44.452Z,102571.03
2023-02-09T16:13:47.457Z,102582.25
2023-02-09T16:18:51.564Z,102581.88
2023-02-09T16:23:58.193Z,102573.59
2023-02-09T16:29:01.632Z,102581.97
2023-02-09T16:34:04.420Z,102582.22
2023-02-09T16:39:17.664Z,102584.56
2023-02-09T16:44:22.596Z,102593.53
2023-02-09T16:49:32.457Z,102581.81
2023-02-09T16:54:43.132Z,102593.94
2023-02-09T16:59:46.379Z,102592.50
2023-02-09T17:04:49.091Z,102594.97
2023-02-09T17:09:53.156Z,102606.13
2023-02-09T17:14:55.997Z,102601.78
2023-02-09T17:20:01.537Z,102617.09
2023-02-09T17:25:06.376Z,102625.38
2023-02-09T17:30:10.922Z,102637.88
2023-02-09T17:35:15.708Z,102640.38
2023-02-09T17:40:21.854Z,102644.63
2023-02-09T17:45:28.279Z,102650.44
2023-02-09T17:50:31.155Z,102655.47
2023-02-09T17:55:35.286Z,102658.78
2023-02-09T18:00:38.450Z,102659.56
2023-02-09T18:05:41.415Z,102654.00
2023-02-09T18:10:45.523Z,102660.03
2023-02-09T18:15:50.240Z,102677.75
2023-02-09T18:20:53.120Z,102685.78
2023-02-09T18:25:57.308Z,102683.38
2023-02-09T18:31:01.579Z,102682.34
2023-02-09T18:36:07.733Z,102683.25
2023-02-09T18:41:13.367Z,102669.44
2023-02-09T18:46:16.828Z,102663.44
2023-02-09T18:51:19.737Z,102675.56
2023-02-09T18:56:25.787Z,102674.28
2023-02-09T19:01:28.733Z,102672.16
2023-02-09T19:06:35.410Z,102672.09
2023-02-09T19:11:40.430Z,102676.03
2023-02-09T19:16:43.958Z,102667.28
2023-02-09T19:21:52.059Z,102671.22
2023-02-09T19:26:56.623Z,102678.41
2023-02-09T19:31:59.564Z,102677.06
2023-02-09T19:37:04.083Z,102668.88
2023-02-09T19:42:09.729Z,102667.63
2023-02-09T19:47:12.509Z,102665.41
2023-02-09T19:52:15.314Z,102669.94
2023-02-09T19:57:20.617Z,102672.00
2023-02-09T20:02:26.304Z,102664.06
2023-02-09T20:07:29.050Z,102658.78
2023-02-09T20:12:33.688Z,102657.03
2023-02-09T20:17:36.987Z,102658.72
2023-02-09T20:22:39.782Z,102659.81
2023-02-09T20:27:44.609Z,102660.22
2023-02-09T20:32:47.544Z,102668.28
2023-02-09T20:37:52.752Z,102671.06
2023-02-09T20:43:14.316Z,102673.47
2023-02-09T20:48:20.050Z,102680.69
2023-02-09T20:53:23.076Z,102680.69
2023-02-09T20:58:27.346Z,102676.50
2023-02-09T21:03:30.254Z,102678.91
2023-02-09T21:08:32.995Z,102692.06
2023-02-09T21:13:41.130Z,102687.53
2023-02-09T21:18:45.944Z,102698.94
2023-02-09T21:23:49.418Z,102707.94
2023-02-09T21:28:56.134Z,102700.72
2023-02-09T21:33:58.964Z,102705.84
2023-02-09T21:39:02.159Z,102704.72
2023-02-09T21:44:07.347Z,102700.16
2023-02-09T21:49:13.332Z,102710.22
2023-02-09T21:54:18.639Z,102713.28
2023-02-09T21:59:23.139Z,102722.78
2023-02-09T22:04:26.929Z,102730.31
2023-02-09T22:09:29.712Z,102729.06
2023-02-09T22:14:34.332Z,102733.53
2023-02-09T22:19:38.158Z,102741.06
2023-02-09T22:24:40.999Z,102741.31
2023-02-09T22:29:46.200Z,102742.38
2023-02-09T22:34:49.020Z,102741.78
2023-02-09T22:39:51.801Z,102750.28
2023-02-09T22:44:55.904Z,102751.56
2023-02-09T22:49:58.790Z,102747.53
2023-02-09T22:55:01.755Z,102748.38
2023-02-09T23:00:08.616Z,102760.56
2023-02-09T23:05:11.870Z,102762.16
2023-02-09T23:10:14.692Z,102765.53
2023-02-09T23:15:20.568Z,102780.31
2023-02-09T23:20:23.313Z,102786.94
2023-02-09T23:25:26.312Z,102777.34
2023-02-09T23:30:31.484Z,102781.59
2023-02-09T23:35:34.288Z,102761.28
2023-02-09T23:40:40.364Z,102767.94
2023-02-09T23:45:44.463Z,102770.34
2023-02-09T23:50:47.294Z,102774.28
2023-02-09T23:55:52.234Z,102770.94
